sensor_id;sensor_type;location;lat;lon;timestamp;P1;durP1;ratioP1;P2;durP2;ratioP2
21941;SDS011;11135;54.192;15.670;2022-11-20T00:00:53;13.50;;;6.53;;
21941;SDS011;11135;54.192;15.670;2022-11-20T00:04:06;13.70;;;7.47;;
21941;SDS011;11135;54.192;15.670;2022-11-20T00:07:14;13.10;;;6.82;;
21941;SDS011;11135;54.192;15.670;2022-11-20T00:10:37;15.80;;;7.50;;
21941;SDS011;11135;54.192;15.670;2022-11-20T00:13:46;13.82;;;7.63;;
21941;SDS011;11135;54.192;15.670;2022-11-20T00:16:59;18.48;;;8.30;;
21941;SDS011;11135;54.192;15.670;2022-11-20T00:20:11;15.02;;;7.80;;
21941;SDS011;11135;54.192;15.670;2022-11-20T00:23:50;14.07;;;7.43;;
21941;SDS011;11135;54.192;15.670;2022-11-20T00:27:34;14.25;;;7.00;;
21941;SDS011;11135;54.192;15.670;2022-11-20T00:31:22;15.50;;;7.00;;
21941;SDS011;11135;54.192;15.670;2022-11-20T00:35:14;12.68;;;7.43;;
21941;SDS011;11135;54.192;15.670;2022-11-20T00:38:25;16.50;;;7.95;;
21941;SDS011;11135;54.192;15.670;2022-11-20T00:41:36;14.30;;;8.02;;
21941;SDS011;11135;54.192;15.670;2022-11-20T00:44:47;12.60;;;7.20;;
21941;SDS011;11135;54.192;15.670;2022-11-20T00:47:56;12.43;;;7.38;;
21941;SDS011;11135;54.192;15.670;2022-11-20T00:51:07;13.75;;;7.93;;
21941;SDS011;11135;54.192;15.670;2022-11-20T00:54:13;12.88;;;6.57;;
21941;SDS011;11135;54.192;15.670;2022-11-20T00:57:21;16.25;;;7.15;;
21941;SDS011;11135;54.192;15.670;2022-11-20T01:00:29;12.93;;;6.70;;
21941;SDS011;11135;54.192;15.670;2022-11-20T01:03:38;14.43;;;7.15;;
21941;SDS011;11135;54.192;15.670;2022-11-20T01:07:03;16.92;;;7.40;;
21941;SDS011;11135;54.192;15.670;2022-11-20T01:10:11;11.90;;;6.90;;
21941;SDS011;11135;54.192;15.670;2022-11-20T01:13:22;14.35;;;8.35;;
21941;SDS011;11135;54.192;15.670;2022-11-20T01:16:43;14.45;;;7.88;;
21941;SDS011;11135;54.192;15.670;2022-11-20T01:19:55;14.50;;;7.47;;
21941;SDS011;11135;54.192;15.670;2022-11-20T01:23:04;15.30;;;7.95;;
21941;SDS011;11135;54.192;15.670;2022-11-20T01:26:14;17.90;;;7.97;;
21941;SDS011;11135;54.192;15.670;2022-11-20T01:29:22;13.43;;;7.72;;
21941;SDS011;11135;54.192;15.670;2022-11-20T01:32:31;14.25;;;8.05;;
21941;SDS011;11135;54.192;15.670;2022-11-20T01:35:41;16.20;;;8.85;;
21941;SDS011;11135;54.192;15.670;2022-11-20T01:38:54;16.45;;;8.38;;
21941;SDS011;11135;54.192;15.670;2022-11-20T01:42:03;13.27;;;7.43;;
21941;SDS011;11135;54.192;15.670;2022-11-20T01:45:49;15.25;;;8.20;;
21941;SDS011;11135;54.192;15.670;2022-11-20T01:49:05;16.45;;;8.10;;
21941;SDS011;11135;54.192;15.670;2022-11-20T01:52:30;16.55;;;8.05;;
21941;SDS011;11135;54.192;15.670;2022-11-20T01:55:53;16.50;;;8.23;;
21941;SDS011;11135;54.192;15.670;2022-11-20T01:59:22;14.03;;;7.43;;
21941;SDS011;11135;54.192;15.670;2022-11-20T02:02:38;18.00;;;8.80;;
21941;SDS011;11135;54.192;15.670;2022-11-20T02:05:47;22.77;;;10.65;;
21941;SDS011;11135;54.192;15.670;2022-11-20T02:09:13;15.10;;;8.75;;
21941;SDS011;11135;54.192;15.670;2022-11-20T02:12:26;17.77;;;8.10;;
21941;SDS011;11135;54.192;15.670;2022-11-20T02:15:49;14.48;;;7.60;;
21941;SDS011;11135;54.192;15.670;2022-11-20T02:18:57;15.68;;;8.40;;
21941;SDS011;11135;54.192;15.670;2022-11-20T02:22:10;15.52;;;7.38;;
21941;SDS011;11135;54.192;15.670;2022-11-20T02:25:26;15.75;;;8.98;;
21941;SDS011;11135;54.192;15.670;2022-11-20T02:28:35;16.63;;;8.70;;
21941;SDS011;11135;54.192;15.670;2022-11-20T02:31:45;19.27;;;8.93;;
21941;SDS011;11135;54.192;15.670;2022-11-20T02:34:52;21.20;;;10.52;;
21941;SDS011;11135;54.192;15.670;2022-11-20T02:38:00;22.17;;;11.07;;
21941;SDS011;11135;54.192;15.670;2022-11-20T02:41:12;25.17;;;10.80;;
21941;SDS011;11135;54.192;15.670;2022-11-20T02:44:20;19.92;;;9.90;;
21941;SDS011;11135;54.192;15.670;2022-11-20T02:47:33;17.98;;;8.98;;
21941;SDS011;11135;54.192;15.670;2022-11-20T02:50:40;17.90;;;9.40;;
21941;SDS011;11135;54.192;15.670;2022-11-20T02:53:50;18.90;;;9.35;;
21941;SDS011;11135;54.192;15.670;2022-11-20T02:57:08;17.75;;;9.88;;
21941;SDS011;11135;54.192;15.670;2022-11-20T03:00:16;18.25;;;9.02;;
21941;SDS011;11135;54.192;15.670;2022-11-20T03:03:35;18.75;;;9.15;;
21941;SDS011;11135;54.192;15.670;2022-11-20T03:06:51;15.52;;;8.45;;
21941;SDS011;11135;54.192;15.670;2022-11-20T03:10:04;16.67;;;7.82;;
21941;SDS011;11135;54.192;15.670;2022-11-20T03:13:18;17.75;;;9.20;;
21941;SDS011;11135;54.192;15.670;2022-11-20T03:16:38;15.93;;;8.88;;
21941;SDS011;11135;54.192;15.670;2022-11-20T03:19:46;15.95;;;8.82;;
21941;SDS011;11135;54.192;15.670;2022-11-20T03:22:55;16.60;;;9.95;;
21941;SDS011;11135;54.192;15.670;2022-11-20T03:26:08;17.00;;;9.77;;
21941;SDS011;11135;54.192;15.670;2022-11-20T03:29:15;18.10;;;9.45;;
21941;SDS011;11135;54.192;15.670;2022-11-20T03:32:45;20.75;;;9.35;;
21941;SDS011;11135;54.192;15.670;2022-11-20T03:35:52;14.98;;;8.45;;
21941;SDS011;11135;54.192;15.670;2022-11-20T03:39:02;15.70;;;8.60;;
21941;SDS011;11135;54.192;15.670;2022-11-20T03:42:08;19.05;;;9.52;;
21941;SDS011;11135;54.192;15.670;2022-11-20T03:45:41;18.85;;;9.43;;
21941;SDS011;11135;54.192;15.670;2022-11-20T03:48:49;15.90;;;8.93;;
21941;SDS011;11135;54.192;15.670;2022-11-20T03:51:58;16.52;;;8.50;;
21941;SDS011;11135;54.192;15.670;2022-11-20T03:55:04;14.23;;;8.18;;
21941;SDS011;11135;54.192;15.670;2022-11-20T03:58:11;18.63;;;9.73;;
21941;SDS011;11135;54.192;15.670;2022-11-20T04:01:21;17.15;;;9.27;;
21941;SDS011;11135;54.192;15.670;2022-11-20T04:04:32;18.45;;;9.73;;
21941;SDS011;11135;54.192;15.670;2022-11-20T04:07:38;16.98;;;8.95;;
21941;SDS011;11135;54.192;15.670;2022-11-20T04:10:51;19.08;;;9.25;;
21941;SDS011;11135;54.192;15.670;2022-11-20T04:14:02;14.50;;;8.20;;
21941;SDS011;11135;54.192;15.670;2022-11-20T04:17:12;19.08;;;9.45;;
21941;SDS011;11135;54.192;15.670;2022-11-20T04:20:19;17.73;;;8.73;;
21941;SDS011;11135;54.192;15.670;2022-11-20T04:27:01;17.58;;;9.00;;
21941;SDS011;11135;54.192;15.670;2022-11-20T04:30:10;15.23;;;8.68;;
21941;SDS011;11135;54.192;15.670;2022-11-20T04:33:33;16.88;;;8.88;;
21941;SDS011;11135;54.192;15.670;2022-11-20T04:36:40;20.75;;;10.10;;
21941;SDS011;11135;54.192;15.670;2022-11-20T04:39:49;21.13;;;10.20;;
21941;SDS011;11135;54.192;15.670;2022-11-20T04:43:00;17.33;;;10.30;;
21941;SDS011;11135;54.192;15.670;2022-11-20T04:46:06;21.90;;;11.10;;
21941;SDS011;11135;54.192;15.670;2022-11-20T04:49:18;19.52;;;10.15;;
21941;SDS011;11135;54.192;15.670;2022-11-20T04:52:26;21.23;;;10.20;;
21941;SDS011;11135;54.192;15.670;2022-11-20T04:55:37;18.10;;;8.98;;
21941;SDS011;11135;54.192;15.670;2022-11-20T04:58:46;24.67;;;11.38;;
21941;SDS011;11135;54.192;15.670;2022-11-20T05:01:55;21.38;;;11.13;;
21941;SDS011;11135;54.192;15.670;2022-11-20T05:05:07;23.27;;;10.70;;
21941;SDS011;11135;54.192;15.670;2022-11-20T05:08:17;23.17;;;11.05;;
21941;SDS011;11135;54.192;15.670;2022-11-20T05:11:34;18.92;;;10.73;;
21941;SDS011;11135;54.192;15.670;2022-11-20T05:14:42;19.38;;;8.77;;
21941;SDS011;11135;54.192;15.670;2022-11-20T05:17:49;22.35;;;12.23;;
21941;SDS011;11135;54.192;15.670;2022-11-20T05:21:08;27.65;;;11.07;;
21941;SDS011;11135;54.192;15.670;2022-11-20T05:24:16;24.00;;;11.10;;
21941;SDS011;11135;54.192;15.670;2022-11-20T05:27:26;18.25;;;9.90;;
21941;SDS011;11135;54.192;15.670;2022-11-20T05:30:49;22.80;;;9.88;;
21941;SDS011;11135;54.192;15.670;2022-11-20T05:33:59;18.95;;;10.25;;
21941;SDS011;11135;54.192;15.670;2022-11-20T05:37:10;17.58;;;9.18;;
21941;SDS011;11135;54.192;15.670;2022-11-20T05:40:19;15.80;;;8.73;;
21941;SDS011;11135;54.192;15.670;2022-11-20T05:43:27;26.00;;;14.43;;
21941;SDS011;11135;54.192;15.670;2022-11-20T05:46:40;25.13;;;12.13;;
21941;SDS011;11135;54.192;15.670;2022-11-20T05:49:48;18.48;;;10.15;;
21941;SDS011;11135;54.192;15.670;2022-11-20T05:52:57;23.05;;;10.23;;
21941;SDS011;11135;54.192;15.670;2022-11-20T05:56:06;20.45;;;10.85;;
21941;SDS011;11135;54.192;15.670;2022-11-20T05:59:20;19.40;;;11.20;;
21941;SDS011;11135;54.192;15.670;2022-11-20T06:02:25;18.55;;;9.63;;
21941;SDS011;11135;54.192;15.670;2022-11-20T06:05:35;21.45;;;11.27;;
21941;SDS011;11135;54.192;15.670;2022-11-20T06:08:48;18.15;;;10.10;;
21941;SDS011;11135;54.192;15.670;2022-11-20T06:12:09;15.48;;;8.65;;
21941;SDS011;11135;54.192;15.670;2022-11-20T06:15:15;18.08;;;10.10;;
21941;SDS011;11135;54.192;15.670;2022-11-20T06:18:25;20.75;;;11.32;;
21941;SDS011;11135;54.192;15.670;2022-11-20T06:21:33;18.48;;;10.07;;
21941;SDS011;11135;54.192;15.670;2022-11-20T06:24:45;22.25;;;11.75;;
21941;SDS011;11135;54.192;15.670;2022-11-20T06:27:51;19.98;;;10.55;;
21941;SDS011;11135;54.192;15.670;2022-11-20T06:31:00;18.50;;;10.45;;
21941;SDS011;11135;54.192;15.670;2022-11-20T06:34:11;19.45;;;9.60;;
21941;SDS011;11135;54.192;15.670;2022-11-20T06:37:25;17.65;;;9.35;;
21941;SDS011;11135;54.192;15.670;2022-11-20T06:40:38;20.75;;;10.32;;
21941;SDS011;11135;54.192;15.670;2022-11-20T06:43:49;19.83;;;10.60;;
21941;SDS011;11135;54.192;15.670;2022-11-20T06:46:58;17.83;;;10.30;;
21941;SDS011;11135;54.192;15.670;2022-11-20T06:50:11;18.65;;;10.40;;
21941;SDS011;11135;54.192;15.670;2022-11-20T06:53:16;18.20;;;9.68;;
21941;SDS011;11135;54.192;15.670;2022-11-20T06:56:26;18.13;;;10.63;;
21941;SDS011;11135;54.192;15.670;2022-11-20T06:59:37;16.48;;;9.95;;
21941;SDS011;11135;54.192;15.670;2022-11-20T07:02:43;16.70;;;9.50;;
21941;SDS011;11135;54.192;15.670;2022-11-20T07:05:53;19.98;;;10.57;;
21941;SDS011;11135;54.192;15.670;2022-11-20T07:09:02;19.88;;;10.93;;
21941;SDS011;11135;54.192;15.670;2022-11-20T07:12:18;20.92;;;10.55;;
21941;SDS011;11135;54.192;15.670;2022-11-20T07:15:27;19.77;;;10.23;;
21941;SDS011;11135;54.192;15.670;2022-11-20T07:18:34;19.70;;;10.30;;
21941;SDS011;11135;54.192;15.670;2022-11-20T07:21:48;18.50;;;10.27;;
21941;SDS011;11135;54.192;15.670;2022-11-20T07:25:03;19.33;;;10.98;;
21941;SDS011;11135;54.192;15.670;2022-11-20T07:28:11;20.15;;;11.05;;
21941;SDS011;11135;54.192;15.670;2022-11-20T07:31:25;20.25;;;11.02;;
21941;SDS011;11135;54.192;15.670;2022-11-20T07:34:33;18.00;;;11.27;;
21941;SDS011;11135;54.192;15.670;2022-11-20T07:37:41;18.85;;;10.18;;
21941;SDS011;11135;54.192;15.670;2022-11-20T07:40:58;21.98;;;10.85;;
21941;SDS011;11135;54.192;15.670;2022-11-20T07:44:09;20.20;;;10.38;;
21941;SDS011;11135;54.192;15.670;2022-11-20T07:47:17;18.98;;;10.32;;
21941;SDS011;11135;54.192;15.670;2022-11-20T07:50:22;18.55;;;10.98;;
21941;SDS011;11135;54.192;15.670;2022-11-20T07:53:28;21.83;;;10.85;;
21941;SDS011;11135;54.192;15.670;2022-11-20T07:56:44;22.52;;;12.27;;
21941;SDS011;11135;54.192;15.670;2022-11-20T08:00:02;20.90;;;11.07;;
21941;SDS011;11135;54.192;15.670;2022-11-20T08:03:07;19.15;;;10.73;;
21941;SDS011;11135;54.192;15.670;2022-11-20T08:06:16;20.67;;;10.50;;
21941;SDS011;11135;54.192;15.670;2022-11-20T08:09:26;19.10;;;10.80;;
21941;SDS011;11135;54.192;15.670;2022-11-20T08:12:35;19.83;;;10.50;;
21941;SDS011;11135;54.192;15.670;2022-11-20T08:15:57;18.50;;;10.40;;
21941;SDS011;11135;54.192;15.670;2022-11-20T08:19:13;19.40;;;11.00;;
21941;SDS011;11135;54.192;15.670;2022-11-20T08:22:20;19.42;;;10.50;;
21941;SDS011;11135;54.192;15.670;2022-11-20T08:25:29;19.95;;;10.63;;
21941;SDS011;11135;54.192;15.670;2022-11-20T08:28:36;21.33;;;10.75;;
21941;SDS011;11135;54.192;15.670;2022-11-20T08:31:52;21.00;;;11.50;;
21941;SDS011;11135;54.192;15.670;2022-11-20T08:35:12;19.95;;;10.73;;
21941;SDS011;11135;54.192;15.670;2022-11-20T08:38:23;21.92;;;12.70;;
21941;SDS011;11135;54.192;15.670;2022-11-20T08:41:31;22.35;;;10.48;;
21941;SDS011;11135;54.192;15.670;2022-11-20T08:44:40;22.70;;;11.25;;
21941;SDS011;11135;54.192;15.670;2022-11-20T08:48:03;23.90;;;11.48;;
21941;SDS011;11135;54.192;15.670;2022-11-20T08:51:24;21.23;;;11.68;;
21941;SDS011;11135;54.192;15.670;2022-11-20T08:54:35;23.88;;;12.02;;
21941;SDS011;11135;54.192;15.670;2022-11-20T08:57:42;23.38;;;11.60;;
21941;SDS011;11135;54.192;15.670;2022-11-20T09:00:57;22.88;;;12.35;;
21941;SDS011;11135;54.192;15.670;2022-11-20T09:04:07;19.85;;;11.77;;
21941;SDS011;11135;54.192;15.670;2022-11-20T09:07:17;23.33;;;12.00;;
21941;SDS011;11135;54.192;15.670;2022-11-20T09:10:26;22.40;;;11.32;;
21941;SDS011;11135;54.192;15.670;2022-11-20T09:13:33;22.27;;;11.82;;
21941;SDS011;11135;54.192;15.670;2022-11-20T09:16:41;21.30;;;11.75;;
21941;SDS011;11135;54.192;15.670;2022-11-20T09:19:52;24.35;;;12.35;;
21941;SDS011;11135;54.192;15.670;2022-11-20T09:22:59;21.05;;;11.75;;
21941;SDS011;11135;54.192;15.670;2022-11-20T09:26:13;24.33;;;12.23;;
21941;SDS011;11135;54.192;15.670;2022-11-20T09:29:20;23.05;;;12.50;;
21941;SDS011;11135;54.192;15.670;2022-11-20T09:32:31;23.38;;;11.77;;
21941;SDS011;11135;54.192;15.670;2022-11-20T09:35:57;23.23;;;12.38;;
21941;SDS011;11135;54.192;15.670;2022-11-20T09:39:05;24.23;;;12.07;;
21941;SDS011;11135;54.192;15.670;2022-11-20T09:42:18;25.98;;;13.40;;
21941;SDS011;11135;54.192;15.670;2022-11-20T09:45:30;20.52;;;11.10;;
21941;SDS011;11135;54.192;15.670;2022-11-20T09:48:52;32.50;;;18.13;;
21941;SDS011;11135;54.192;15.670;2022-11-20T09:52:10;24.52;;;13.60;;
21941;SDS011;11135;54.192;15.670;2022-11-20T09:55:20;23.38;;;12.43;;
21941;SDS011;11135;54.192;15.670;2022-11-20T09:58:40;21.80;;;11.80;;
21941;SDS011;11135;54.192;15.670;2022-11-20T10:01:53;25.17;;;12.73;;
21941;SDS011;11135;54.192;15.670;2022-11-20T10:05:01;21.25;;;11.80;;
21941;SDS011;11135;54.192;15.670;2022-11-20T10:11:59;21.02;;;12.52;;
21941;SDS011;11135;54.192;15.670;2022-11-20T10:15:13;21.70;;;11.43;;
21941;SDS011;11135;54.192;15.670;2022-11-20T10:21:34;21.75;;;11.75;;
21941;SDS011;11135;54.192;15.670;2022-11-20T10:25:42;22.63;;;12.75;;
21941;SDS011;11135;54.192;15.670;2022-11-20T10:29:06;24.77;;;13.15;;
21941;SDS011;11135;54.192;15.670;2022-11-20T10:32:20;24.67;;;13.45;;
21941;SDS011;11135;54.192;15.670;2022-11-20T10:35:48;20.00;;;11.25;;
21941;SDS011;11135;54.192;15.670;2022-11-20T10:38:57;25.05;;;13.25;;
21941;SDS011;11135;54.192;15.670;2022-11-20T10:42:03;24.88;;;13.13;;
21941;SDS011;11135;54.192;15.670;2022-11-20T10:45:18;26.90;;;14.02;;
21941;SDS011;11135;54.192;15.670;2022-11-20T10:48:31;27.52;;;15.02;;
21941;SDS011;11135;54.192;15.670;2022-11-20T10:51:37;27.95;;;13.52;;
21941;SDS011;11135;54.192;15.670;2022-11-20T10:54:47;22.77;;;13.73;;
21941;SDS011;11135;54.192;15.670;2022-11-20T10:57:59;24.65;;;13.63;;
21941;SDS011;11135;54.192;15.670;2022-11-20T11:04:28;26.33;;;14.45;;
21941;SDS011;11135;54.192;15.670;2022-11-20T11:07:36;24.00;;;13.90;;
21941;SDS011;11135;54.192;15.670;2022-11-20T11:10:50;26.88;;;13.85;;
21941;SDS011;11135;54.192;15.670;2022-11-20T11:14:06;25.83;;;13.98;;
21941;SDS011;11135;54.192;15.670;2022-11-20T11:17:25;24.23;;;13.68;;
21941;SDS011;11135;54.192;15.670;2022-11-20T11:20:35;23.90;;;13.70;;
21941;SDS011;11135;54.192;15.670;2022-11-20T11:23:42;25.90;;;13.60;;
21941;SDS011;11135;54.192;15.670;2022-11-20T11:26:56;24.85;;;13.13;;
21941;SDS011;11135;54.192;15.670;2022-11-20T11:30:14;23.25;;;12.63;;
21941;SDS011;11135;54.192;15.670;2022-11-20T11:33:23;23.17;;;13.90;;
21941;SDS011;11135;54.192;15.670;2022-11-20T11:36:31;22.88;;;13.18;;
21941;SDS011;11135;54.192;15.670;2022-11-20T11:39:38;22.88;;;14.05;;
21941;SDS011;11135;54.192;15.670;2022-11-20T11:43:17;24.23;;;14.30;;
21941;SDS011;11135;54.192;15.670;2022-11-20T11:46:41;26.88;;;13.52;;
21941;SDS011;11135;54.192;15.670;2022-11-20T11:50:00;24.38;;;13.82;;
21941;SDS011;11135;54.192;15.670;2022-11-20T11:53:13;27.40;;;14.30;;
21941;SDS011;11135;54.192;15.670;2022-11-20T11:56:20;30.08;;;14.73;;
21941;SDS011;11135;54.192;15.670;2022-11-20T11:59:26;23.48;;;12.45;;
21941;SDS011;11135;54.192;15.670;2022-11-20T12:02:34;25.67;;;14.43;;
21941;SDS011;11135;54.192;15.670;2022-11-20T12:05:44;25.73;;;14.43;;
21941;SDS011;11135;54.192;15.670;2022-11-20T12:08:53;25.65;;;14.10;;
21941;SDS011;11135;54.192;15.670;2022-11-20T12:12:04;24.90;;;13.70;;
21941;SDS011;11135;54.192;15.670;2022-11-20T12:15:11;28.25;;;15.02;;
21941;SDS011;11135;54.192;15.670;2022-11-20T12:18:33;24.15;;;14.10;;
21941;SDS011;11135;54.192;15.670;2022-11-20T12:21:43;22.92;;;14.32;;
21941;SDS011;11135;54.192;15.670;2022-11-20T12:25:02;24.95;;;13.48;;
21941;SDS011;11135;54.192;15.670;2022-11-20T12:31:42;24.92;;;15.23;;
21941;SDS011;11135;54.192;15.670;2022-11-20T12:34:52;27.98;;;14.93;;
21941;SDS011;11135;54.192;15.670;2022-11-20T12:41:43;26.95;;;15.80;;
21941;SDS011;11135;54.192;15.670;2022-11-20T12:45:06;31.88;;;16.17;;
21941;SDS011;11135;54.192;15.670;2022-11-20T12:48:32;28.25;;;15.85;;
21941;SDS011;11135;54.192;15.670;2022-11-20T12:51:51;28.80;;;15.45;;
21941;SDS011;11135;54.192;15.670;2022-11-20T12:55:07;26.70;;;15.00;;
21941;SDS011;11135;54.192;15.670;2022-11-20T12:58:19;27.27;;;15.33;;
21941;SDS011;11135;54.192;15.670;2022-11-20T13:01:35;30.38;;;15.65;;
21941;SDS011;11135;54.192;15.670;2022-11-20T13:04:53;30.60;;;16.00;;
21941;SDS011;11135;54.192;15.670;2022-11-20T13:08:02;25.75;;;15.02;;
21941;SDS011;11135;54.192;15.670;2022-11-20T13:11:13;27.48;;;16.23;;
21941;SDS011;11135;54.192;15.670;2022-11-20T13:14:31;26.83;;;15.10;;
21941;SDS011;11135;54.192;15.670;2022-11-20T13:17:43;30.50;;;17.25;;
21941;SDS011;11135;54.192;15.670;2022-11-20T13:20:52;31.23;;;16.20;;
21941;SDS011;11135;54.192;15.670;2022-11-20T13:24:06;29.38;;;16.02;;
21941;SDS011;11135;54.192;15.670;2022-11-20T13:27:22;27.65;;;16.23;;
21941;SDS011;11135;54.192;15.670;2022-11-20T13:30:48;29.05;;;16.08;;
21941;SDS011;11135;54.192;15.670;2022-11-20T13:33:53;33.53;;;17.55;;
21941;SDS011;11135;54.192;15.670;2022-11-20T13:37:01;34.08;;;17.73;;
21941;SDS011;11135;54.192;15.670;2022-11-20T13:40:12;28.27;;;16.52;;
21941;SDS011;11135;54.192;15.670;2022-11-20T13:43:22;29.50;;;16.67;;
21941;SDS011;11135;54.192;15.670;2022-11-20T13:46:40;37.58;;;19.23;;
21941;SDS011;11135;54.192;15.670;2022-11-20T13:49:47;34.45;;;18.20;;
21941;SDS011;11135;54.192;15.670;2022-11-20T13:52:58;35.17;;;17.83;;
21941;SDS011;11135;54.192;15.670;2022-11-20T13:56:16;36.03;;;17.90;;
21941;SDS011;11135;54.192;15.670;2022-11-20T13:59:34;31.52;;;17.58;;
21941;SDS011;11135;54.192;15.670;2022-11-20T14:02:46;33.85;;;18.33;;
21941;SDS011;11135;54.192;15.670;2022-11-20T14:06:01;32.00;;;17.55;;
21941;SDS011;11135;54.192;15.670;2022-11-20T14:12:15;35.58;;;17.27;;
21941;SDS011;11135;54.192;15.670;2022-11-20T14:15:28;31.98;;;16.45;;
21941;SDS011;11135;54.192;15.670;2022-11-20T14:18:38;31.88;;;17.73;;
21941;SDS011;11135;54.192;15.670;2022-11-20T14:21:53;36.33;;;17.23;;
21941;SDS011;11135;54.192;15.670;2022-11-20T14:25:05;27.95;;;15.73;;
21941;SDS011;11135;54.192;15.670;2022-11-20T14:28:17;31.35;;;16.35;;
21941;SDS011;11135;54.192;15.670;2022-11-20T14:31:26;36.72;;;17.20;;
21941;SDS011;11135;54.192;15.670;2022-11-20T14:34:39;33.13;;;17.00;;
21941;SDS011;11135;54.192;15.670;2022-11-20T14:37:45;35.10;;;18.23;;
21941;SDS011;11135;54.192;15.670;2022-11-20T14:41:04;31.98;;;17.42;;
21941;SDS011;11135;54.192;15.670;2022-11-20T14:44:10;35.03;;;18.45;;
21941;SDS011;11135;54.192;15.670;2022-11-20T14:47:27;33.58;;;18.48;;
21941;SDS011;11135;54.192;15.670;2022-11-20T14:50:37;35.58;;;18.70;;
21941;SDS011;11135;54.192;15.670;2022-11-20T14:53:51;34.80;;;18.13;;
21941;SDS011;11135;54.192;15.670;2022-11-20T14:56:59;34.22;;;19.33;;
21941;SDS011;11135;54.192;15.670;2022-11-20T15:00:17;34.17;;;19.15;;
21941;SDS011;11135;54.192;15.670;2022-11-20T15:03:30;35.60;;;18.58;;
21941;SDS011;11135;54.192;15.670;2022-11-20T15:06:48;32.70;;;17.85;;
21941;SDS011;11135;54.192;15.670;2022-11-20T15:10:01;33.63;;;16.70;;
21941;SDS011;11135;54.192;15.670;2022-11-20T15:13:10;34.70;;;17.02;;
21941;SDS011;11135;54.192;15.670;2022-11-20T15:16:25;31.77;;;18.77;;
21941;SDS011;11135;54.192;15.670;2022-11-20T15:19:31;34.25;;;18.17;;
21941;SDS011;11135;54.192;15.670;2022-11-20T15:22:43;38.65;;;20.13;;
21941;SDS011;11135;54.192;15.670;2022-11-20T15:25:50;34.05;;;18.75;;
21941;SDS011;11135;54.192;15.670;2022-11-20T15:29:01;33.85;;;17.85;;
21941;SDS011;11135;54.192;15.670;2022-11-20T15:32:08;31.40;;;17.50;;
21941;SDS011;11135;54.192;15.670;2022-11-20T15:35:17;30.58;;;17.20;;
21941;SDS011;11135;54.192;15.670;2022-11-20T15:38:30;31.88;;;17.48;;
21941;SDS011;11135;54.192;15.670;2022-11-20T15:41:37;31.98;;;18.15;;
21941;SDS011;11135;54.192;15.670;2022-11-20T15:44:43;31.85;;;17.20;;
21941;SDS011;11135;54.192;15.670;2022-11-20T15:47:50;33.60;;;18.75;;
21941;SDS011;11135;54.192;15.670;2022-11-20T15:50:58;39.33;;;19.98;;
21941;SDS011;11135;54.192;15.670;2022-11-20T15:54:13;30.67;;;16.55;;
21941;SDS011;11135;54.192;15.670;2022-11-20T15:57:20;32.37;;;16.93;;
21941;SDS011;11135;54.192;15.670;2022-11-20T16:00:27;37.88;;;19.02;;
21941;SDS011;11135;54.192;15.670;2022-11-20T16:03:33;33.60;;;18.00;;
21941;SDS011;11135;54.192;15.670;2022-11-20T16:06:43;32.30;;;18.10;;
21941;SDS011;11135;54.192;15.670;2022-11-20T16:09:56;33.63;;;17.25;;
21941;SDS011;11135;54.192;15.670;2022-11-20T16:13:02;30.92;;;16.13;;
21941;SDS011;11135;54.192;15.670;2022-11-20T16:16:20;36.13;;;19.58;;
21941;SDS011;11135;54.192;15.670;2022-11-20T16:19:30;33.35;;;16.52;;
21941;SDS011;11135;54.192;15.670;2022-11-20T16:22:38;32.78;;;17.33;;
21941;SDS011;11135;54.192;15.670;2022-11-20T16:25:47;34.47;;;18.08;;
21941;SDS011;11135;54.192;15.670;2022-11-20T16:28:54;33.42;;;17.38;;
21941;SDS011;11135;54.192;15.670;2022-11-20T16:32:00;32.42;;;15.38;;
21941;SDS011;11135;54.192;15.670;2022-11-20T16:35:06;29.77;;;16.00;;
21941;SDS011;11135;54.192;15.670;2022-11-20T16:38:15;29.70;;;15.93;;
21941;SDS011;11135;54.192;15.670;2022-11-20T16:41:28;29.65;;;14.77;;
21941;SDS011;11135;54.192;15.670;2022-11-20T16:44:41;27.80;;;15.90;;
21941;SDS011;11135;54.192;15.670;2022-11-20T16:47:52;26.70;;;13.63;;
21941;SDS011;11135;54.192;15.670;2022-11-20T16:50:58;26.77;;;14.43;;
21941;SDS011;11135;54.192;15.670;2022-11-20T16:54:07;24.67;;;14.85;;
21941;SDS011;11135;54.192;15.670;2022-11-20T16:57:25;21.67;;;13.23;;
21941;SDS011;11135;54.192;15.670;2022-11-20T17:00:35;20.75;;;11.95;;
21941;SDS011;11135;54.192;15.670;2022-11-20T17:03:53;24.02;;;12.55;;
21941;SDS011;11135;54.192;15.670;2022-11-20T17:06:58;22.73;;;12.02;;
21941;SDS011;11135;54.192;15.670;2022-11-20T17:10:09;22.83;;;11.90;;
21941;SDS011;11135;54.192;15.670;2022-11-20T17:13:20;19.02;;;11.15;;
21941;SDS011;11135;54.192;15.670;2022-11-20T17:16:36;16.60;;;9.38;;
21941;SDS011;11135;54.192;15.670;2022-11-20T17:19:42;23.05;;;12.43;;
21941;SDS011;11135;54.192;15.670;2022-11-20T17:22:48;22.35;;;11.73;;
21941;SDS011;11135;54.192;15.670;2022-11-20T17:25:59;23.20;;;12.32;;
21941;SDS011;11135;54.192;15.670;2022-11-20T17:29:12;19.75;;;11.60;;
21941;SDS011;11135;54.192;15.670;2022-11-20T17:32:23;24.35;;;12.68;;
21941;SDS011;11135;54.192;15.670;2022-11-20T17:35:39;18.25;;;11.52;;
21941;SDS011;11135;54.192;15.670;2022-11-20T17:38:45;18.15;;;10.48;;
21941;SDS011;11135;54.192;15.670;2022-11-20T17:41:52;18.33;;;10.77;;
21941;SDS011;11135;54.192;15.670;2022-11-20T17:45:13;19.65;;;11.45;;
21941;SDS011;11135;54.192;15.670;2022-11-20T17:48:20;22.23;;;10.95;;
21941;SDS011;11135;54.192;15.670;2022-11-20T17:51:26;22.20;;;12.02;;
21941;SDS011;11135;54.192;15.670;2022-11-20T17:54:33;20.63;;;10.77;;
21941;SDS011;11135;54.192;15.670;2022-11-20T17:57:39;19.95;;;10.18;;
21941;SDS011;11135;54.192;15.670;2022-11-20T18:01:05;17.95;;;10.52;;
21941;SDS011;11135;54.192;15.670;2022-11-20T18:04:11;17.90;;;9.80;;
21941;SDS011;11135;54.192;15.670;2022-11-20T18:07:17;19.33;;;10.52;;
21941;SDS011;11135;54.192;15.670;2022-11-20T18:10:23;18.73;;;9.73;;
21941;SDS011;11135;54.192;15.670;2022-11-20T18:13:32;22.65;;;10.80;;
21941;SDS011;11135;54.192;15.670;2022-11-20T18:16:56;23.77;;;10.40;;
21941;SDS011;11135;54.192;15.670;2022-11-20T18:20:04;21.30;;;9.05;;
21941;SDS011;11135;54.192;15.670;2022-11-20T18:23:32;24.65;;;11.20;;
21941;SDS011;11135;54.192;15.670;2022-11-20T18:26:37;25.00;;;10.15;;
21941;SDS011;11135;54.192;15.670;2022-11-20T18:29:46;20.90;;;9.52;;
21941;SDS011;11135;54.192;15.670;2022-11-20T18:32:58;23.05;;;10.15;;
21941;SDS011;11135;54.192;15.670;2022-11-20T18:36:10;20.90;;;10.15;;
21941;SDS011;11135;54.192;15.670;2022-11-20T18:39:15;23.33;;;11.50;;
21941;SDS011;11135;54.192;15.670;2022-11-20T18:42:21;22.67;;;10.73;;
21941;SDS011;11135;54.192;15.670;2022-11-20T18:45:42;24.20;;;10.93;;
21941;SDS011;11135;54.192;15.670;2022-11-20T18:48:50;15.68;;;7.50;;
21941;SDS011;11135;54.192;15.670;2022-11-20T18:52:00;25.08;;;9.38;;
21941;SDS011;11135;54.192;15.670;2022-11-20T18:55:07;20.05;;;9.57;;
21941;SDS011;11135;54.192;15.670;2022-11-20T18:58:12;22.90;;;9.82;;